sensor_id;sensor_type;location;lat;lon;timestamp;P1;durP1;ratioP1;P2;durP2;ratioP2
13349;SDS011;6744;53.190;6.576;2023-05-17T00:01:30;17.60;;;3.60;;
13349;SDS011;6744;53.190;6.576;2023-05-17T00:03:56;10.20;;;2.90;;
13349;SDS011;6744;53.190;6.576;2023-05-17T00:06:21;8.43;;;2.43;;
13349;SDS011;6744;53.190;6.576;2023-05-17T00:08:46;12.37;;;3.23;;
13349;SDS011;6744;53.190;6.576;2023-05-17T00:11:12;9.33;;;2.70;;
13349;SDS011;6744;53.190;6.576;2023-05-17T00:13:37;12.77;;;3.17;;
13349;SDS011;6744;53.190;6.576;2023-05-17T00:16:05;11.87;;;3.10;;
13349;SDS011;6744;53.190;6.576;2023-05-17T00:18:30;11.03;;;2.87;;
13349;SDS011;6744;53.190;6.576;2023-05-17T00:20:56;8.80;;;2.63;;
13349;SDS011;6744;53.190;6.576;2023-05-17T00:23:21;10.10;;;2.93;;
13349;SDS011;6744;53.190;6.576;2023-05-17T00:25:46;10.70;;;2.63;;
13349;SDS011;6744;53.190;6.576;2023-05-17T00:28:12;9.97;;;2.70;;
13349;SDS011;6744;53.190;6.576;2023-05-17T00:30:37;14.50;;;3.07;;
13349;SDS011;6744;53.190;6.576;2023-05-17T00:33:02;9.37;;;2.80;;
13349;SDS011;6744;53.190;6.576;2023-05-17T00:35:28;8.13;;;2.80;;
13349;SDS011;6744;53.190;6.576;2023-05-17T00:37:53;9.70;;;3.17;;
13349;SDS011;6744;53.190;6.576;2023-05-17T00:40:19;8.57;;;2.80;;
13349;SDS011;6744;53.190;6.576;2023-05-17T00:42:44;13.10;;;2.93;;
13349;SDS011;6744;53.190;6.576;2023-05-17T00:45:10;7.87;;;2.37;;
13349;SDS011;6744;53.190;6.576;2023-05-17T00:47:35;11.13;;;2.60;;
13349;SDS011;6744;53.190;6.576;2023-05-17T00:50:01;11.37;;;3.37;;
13349;SDS011;6744;53.190;6.576;2023-05-17T00:52:26;10.53;;;3.00;;
13349;SDS011;6744;53.190;6.576;2023-05-17T00:54:52;14.13;;;3.43;;
13349;SDS011;6744;53.190;6.576;2023-05-17T00:57:17;10.40;;;2.60;;
13349;SDS011;6744;53.190;6.576;2023-05-17T00:59:43;15.00;;;3.37;;
13349;SDS011;6744;53.190;6.576;2023-05-17T01:02:09;11.37;;;3.20;;
13349;SDS011;6744;53.190;6.576;2023-05-17T01:04:35;9.27;;;2.83;;
13349;SDS011;6744;53.190;6.576;2023-05-17T01:07:01;10.67;;;2.67;;
13349;SDS011;6744;53.190;6.576;2023-05-17T01:09:27;7.23;;;2.47;;
13349;SDS011;6744;53.190;6.576;2023-05-17T01:12:01;8.27;;;2.67;;
13349;SDS011;6744;53.190;6.576;2023-05-17T01:17:22;7.93;;;2.73;;
13349;SDS011;6744;53.190;6.576;2023-05-17T01:19:58;7.40;;;2.70;;
13349;SDS011;6744;53.190;6.576;2023-05-17T01:27:53;8.63;;;2.50;;
13349;SDS011;6744;53.190;6.576;2023-05-17T01:30:20;7.97;;;2.80;;
13349;SDS011;6744;53.190;6.576;2023-05-17T01:32:46;9.13;;;2.90;;
13349;SDS011;6744;53.190;6.576;2023-05-17T01:35:12;8.57;;;2.67;;
13349;SDS011;6744;53.190;6.576;2023-05-17T01:37:38;9.00;;;2.53;;
13349;SDS011;6744;53.190;6.576;2023-05-17T01:40:04;11.30;;;3.13;;
13349;SDS011;6744;53.190;6.576;2023-05-17T01:42:30;11.03;;;2.77;;
13349;SDS011;6744;53.190;6.576;2023-05-17T01:45:07;13.10;;;2.50;;
13349;SDS011;6744;53.190;6.576;2023-05-17T01:50:33;8.83;;;2.33;;
13349;SDS011;6744;53.190;6.576;2023-05-17T01:53:09;12.50;;;2.50;;
13349;SDS011;6744;53.190;6.576;2023-05-17T01:55:56;11.27;;;2.57;;
13349;SDS011;6744;53.190;6.576;2023-05-17T01:58:26;8.90;;;2.10;;
13349;SDS011;6744;53.190;6.576;2023-05-17T02:00:54;8.23;;;2.20;;
13349;SDS011;6744;53.190;6.576;2023-05-17T02:03:20;8.53;;;2.37;;
13349;SDS011;6744;53.190;6.576;2023-05-17T02:05:46;6.13;;;2.17;;
13349;SDS011;6744;53.190;6.576;2023-05-17T02:08:11;12.30;;;2.60;;
13349;SDS011;6744;53.190;6.576;2023-05-17T02:10:38;11.90;;;2.73;;
13349;SDS011;6744;53.190;6.576;2023-05-17T02:13:04;5.67;;;1.40;;
13349;SDS011;6744;53.190;6.576;2023-05-17T02:15:29;5.50;;;1.83;;
13349;SDS011;6744;53.190;6.576;2023-05-17T02:17:55;5.03;;;1.70;;
13349;SDS011;6744;53.190;6.576;2023-05-17T02:20:20;6.47;;;1.43;;
13349;SDS011;6744;53.190;6.576;2023-05-17T02:22:46;6.10;;;1.70;;
13349;SDS011;6744;53.190;6.576;2023-05-17T02:25:11;4.77;;;1.70;;
13349;SDS011;6744;53.190;6.576;2023-05-17T02:27:36;6.20;;;2.07;;
13349;SDS011;6744;53.190;6.576;2023-05-17T02:30:02;6.30;;;1.67;;
13349;SDS011;6744;53.190;6.576;2023-05-17T02:32:28;5.17;;;1.47;;
13349;SDS011;6744;53.190;6.576;2023-05-17T02:34:54;6.93;;;1.50;;
13349;SDS011;6744;53.190;6.576;2023-05-17T02:37:20;6.67;;;2.00;;
13349;SDS011;6744;53.190;6.576;2023-05-17T02:39:45;4.97;;;1.60;;
13349;SDS011;6744;53.190;6.576;2023-05-17T02:42:11;5.50;;;1.33;;
13349;SDS011;6744;53.190;6.576;2023-05-17T02:44:36;8.60;;;1.70;;
13349;SDS011;6744;53.190;6.576;2023-05-17T02:47:01;5.40;;;1.40;;
13349;SDS011;6744;53.190;6.576;2023-05-17T02:49:27;8.53;;;1.83;;
13349;SDS011;6744;53.190;6.576;2023-05-17T02:51:52;6.37;;;1.60;;
13349;SDS011;6744;53.190;6.576;2023-05-17T02:54:17;7.33;;;2.00;;
13349;SDS011;6744;53.190;6.576;2023-05-17T02:56:43;4.97;;;1.50;;
13349;SDS011;6744;53.190;6.576;2023-05-17T02:59:08;6.33;;;1.83;;
13349;SDS011;6744;53.190;6.576;2023-05-17T03:01:34;9.17;;;2.07;;
13349;SDS011;6744;53.190;6.576;2023-05-17T03:04:00;7.47;;;1.80;;
13349;SDS011;6744;53.190;6.576;2023-05-17T03:06:25;7.40;;;1.70;;
13349;SDS011;6744;53.190;6.576;2023-05-17T03:08:50;7.97;;;2.00;;
13349;SDS011;6744;53.190;6.576;2023-05-17T03:11:16;6.50;;;2.10;;
13349;SDS011;6744;53.190;6.576;2023-05-17T03:13:41;7.47;;;1.63;;
13349;SDS011;6744;53.190;6.576;2023-05-17T03:16:06;7.80;;;1.93;;
13349;SDS011;6744;53.190;6.576;2023-05-17T03:18:33;8.63;;;1.90;;
13349;SDS011;6744;53.190;6.576;2023-05-17T03:20:58;7.97;;;1.50;;
13349;SDS011;6744;53.190;6.576;2023-05-17T03:23:24;7.30;;;1.83;;
13349;SDS011;6744;53.190;6.576;2023-05-17T03:25:49;8.47;;;2.00;;
13349;SDS011;6744;53.190;6.576;2023-05-17T03:28:14;6.13;;;1.80;;
13349;SDS011;6744;53.190;6.576;2023-05-17T03:30:40;7.20;;;1.60;;
13349;SDS011;6744;53.190;6.576;2023-05-17T03:33:05;7.13;;;1.90;;
13349;SDS011;6744;53.190;6.576;2023-05-17T03:35:30;7.77;;;2.00;;
13349;SDS011;6744;53.190;6.576;2023-05-17T03:37:56;8.53;;;1.63;;
13349;SDS011;6744;53.190;6.576;2023-05-17T03:40:21;6.70;;;1.53;;
13349;SDS011;6744;53.190;6.576;2023-05-17T03:42:46;4.97;;;1.50;;
13349;SDS011;6744;53.190;6.576;2023-05-17T03:45:12;8.60;;;1.93;;
13349;SDS011;6744;53.190;6.576;2023-05-17T03:47:37;4.23;;;1.30;;
13349;SDS011;6744;53.190;6.576;2023-05-17T03:50:03;4.93;;;1.10;;
13349;SDS011;6744;53.190;6.576;2023-05-17T03:52:29;6.63;;;1.63;;
13349;SDS011;6744;53.190;6.576;2023-05-17T03:54:54;6.57;;;1.53;;
13349;SDS011;6744;53.190;6.576;2023-05-17T03:57:20;6.13;;;1.20;;
13349;SDS011;6744;53.190;6.576;2023-05-17T03:59:45;5.60;;;1.30;;
13349;SDS011;6744;53.190;6.576;2023-05-17T04:02:11;6.73;;;1.60;;
13349;SDS011;6744;53.190;6.576;2023-05-17T04:04:36;7.07;;;1.97;;
13349;SDS011;6744;53.190;6.576;2023-05-17T04:07:01;5.03;;;1.50;;
13349;SDS011;6744;53.190;6.576;2023-05-17T04:09:27;3.27;;;1.07;;
13349;SDS011;6744;53.190;6.576;2023-05-17T04:11:52;6.50;;;1.07;;
13349;SDS011;6744;53.190;6.576;2023-05-17T04:14:17;5.60;;;1.63;;
13349;SDS011;6744;53.190;6.576;2023-05-17T04:16:43;5.60;;;1.13;;
13349;SDS011;6744;53.190;6.576;2023-05-17T04:19:08;6.70;;;1.73;;
13349;SDS011;6744;53.190;6.576;2023-05-17T04:21:34;9.97;;;1.87;;
13349;SDS011;6744;53.190;6.576;2023-05-17T04:23:59;7.43;;;1.40;;
13349;SDS011;6744;53.190;6.576;2023-05-17T04:26:25;5.63;;;1.23;;
13349;SDS011;6744;53.190;6.576;2023-05-17T04:28:51;4.33;;;1.33;;
13349;SDS011;6744;53.190;6.576;2023-05-17T04:31:16;5.30;;;1.30;;
13349;SDS011;6744;53.190;6.576;2023-05-17T04:33:41;5.23;;;1.20;;
13349;SDS011;6744;53.190;6.576;2023-05-17T04:36:07;5.93;;;1.50;;
13349;SDS011;6744;53.190;6.576;2023-05-17T04:38:32;4.20;;;1.20;;
13349;SDS011;6744;53.190;6.576;2023-05-17T04:41:01;4.80;;;1.40;;
13349;SDS011;6744;53.190;6.576;2023-05-17T04:43:30;4.37;;;1.40;;
13349;SDS011;6744;53.190;6.576;2023-05-17T04:45:56;3.57;;;1.13;;
13349;SDS011;6744;53.190;6.576;2023-05-17T04:48:22;6.60;;;1.20;;
13349;SDS011;6744;53.190;6.576;2023-05-17T04:50:48;4.50;;;1.20;;
13349;SDS011;6744;53.190;6.576;2023-05-17T04:53:13;5.23;;;1.20;;
13349;SDS011;6744;53.190;6.576;2023-05-17T04:55:39;6.13;;;1.23;;
13349;SDS011;6744;53.190;6.576;2023-05-17T04:58:05;4.13;;;1.23;;
13349;SDS011;6744;53.190;6.576;2023-05-17T05:00:30;6.00;;;1.30;;
13349;SDS011;6744;53.190;6.576;2023-05-17T05:02:55;5.60;;;1.60;;
13349;SDS011;6744;53.190;6.576;2023-05-17T05:05:21;5.60;;;1.50;;
13349;SDS011;6744;53.190;6.576;2023-05-17T05:07:46;6.90;;;1.87;;
13349;SDS011;6744;53.190;6.576;2023-05-17T05:10:11;6.67;;;1.53;;
13349;SDS011;6744;53.190;6.576;2023-05-17T05:12:37;4.77;;;1.20;;
13349;SDS011;6744;53.190;6.576;2023-05-17T05:15:02;4.93;;;1.27;;
13349;SDS011;6744;53.190;6.576;2023-05-17T05:17:29;6.77;;;1.40;;
13349;SDS011;6744;53.190;6.576;2023-05-17T05:19:54;2.57;;;1.00;;
13349;SDS011;6744;53.190;6.576;2023-05-17T05:22:20;4.83;;;1.10;;
13349;SDS011;6744;53.190;6.576;2023-05-17T05:24:45;5.17;;;1.37;;
13349;SDS011;6744;53.190;6.576;2023-05-17T05:27:10;3.90;;;1.00;;
13349;SDS011;6744;53.190;6.576;2023-05-17T05:29:36;6.10;;;1.60;;
13349;SDS011;6744;53.190;6.576;2023-05-17T05:32:01;5.80;;;1.50;;
13349;SDS011;6744;53.190;6.576;2023-05-17T05:34:26;5.17;;;1.73;;
13349;SDS011;6744;53.190;6.576;2023-05-17T05:36:53;2.97;;;1.07;;
13349;SDS011;6744;53.190;6.576;2023-05-17T05:39:18;6.17;;;1.37;;
13349;SDS011;6744;53.190;6.576;2023-05-17T05:41:44;4.10;;;1.20;;
13349;SDS011;6744;53.190;6.576;2023-05-17T05:44:09;6.27;;;1.40;;
13349;SDS011;6744;53.190;6.576;2023-05-17T05:46:35;6.53;;;1.63;;
13349;SDS011;6744;53.190;6.576;2023-05-17T05:49:00;5.27;;;1.50;;
13349;SDS011;6744;53.190;6.576;2023-05-17T05:51:25;7.93;;;1.77;;
13349;SDS011;6744;53.190;6.576;2023-05-17T05:53:51;6.97;;;1.90;;
13349;SDS011;6744;53.190;6.576;2023-05-17T05:56:16;7.90;;;1.77;;
13349;SDS011;6744;53.190;6.576;2023-05-17T05:58:42;6.63;;;1.90;;
13349;SDS011;6744;53.190;6.576;2023-05-17T06:01:07;7.27;;;2.17;;
13349;SDS011;6744;53.190;6.576;2023-05-17T06:03:32;5.77;;;1.50;;
13349;SDS011;6744;53.190;6.576;2023-05-17T06:05:58;7.13;;;1.70;;
13349;SDS011;6744;53.190;6.576;2023-05-17T06:08:23;5.23;;;1.80;;
13349;SDS011;6744;53.190;6.576;2023-05-17T06:10:48;4.80;;;1.47;;
13349;SDS011;6744;53.190;6.576;2023-05-17T06:13:14;10.60;;;2.03;;
13349;SDS011;6744;53.190;6.576;2023-05-17T06:15:39;5.10;;;1.70;;
13349;SDS011;6744;53.190;6.576;2023-05-17T06:18:05;8.83;;;2.10;;
13349;SDS011;6744;53.190;6.576;2023-05-17T06:20:30;6.80;;;2.00;;
13349;SDS011;6744;53.190;6.576;2023-05-17T06:22:55;8.83;;;1.97;;
13349;SDS011;6744;53.190;6.576;2023-05-17T06:25:21;10.33;;;1.80;;
13349;SDS011;6744;53.190;6.576;2023-05-17T06:27:46;7.00;;;1.83;;
13349;SDS011;6744;53.190;6.576;2023-05-17T06:30:11;9.90;;;2.20;;
13349;SDS011;6744;53.190;6.576;2023-05-17T06:32:37;8.93;;;2.40;;
13349;SDS011;6744;53.190;6.576;2023-05-17T06:35:03;11.30;;;2.70;;
13349;SDS011;6744;53.190;6.576;2023-05-17T06:37:29;8.33;;;1.93;;
13349;SDS011;6744;53.190;6.576;2023-05-17T06:40:00;7.73;;;2.13;;
13349;SDS011;6744;53.190;6.576;2023-05-17T06:42:32;12.90;;;2.67;;
13349;SDS011;6744;53.190;6.576;2023-05-17T06:44:58;7.90;;;2.27;;
13349;SDS011;6744;53.190;6.576;2023-05-17T06:47:23;7.33;;;1.97;;
13349;SDS011;6744;53.190;6.576;2023-05-17T06:49:49;8.00;;;2.17;;
13349;SDS011;6744;53.190;6.576;2023-05-17T06:52:14;10.80;;;2.43;;
13349;SDS011;6744;53.190;6.576;2023-05-17T06:54:40;11.00;;;2.47;;
13349;SDS011;6744;53.190;6.576;2023-05-17T06:57:05;7.90;;;2.10;;
13349;SDS011;6744;53.190;6.576;2023-05-17T06:59:30;8.13;;;2.53;;
13349;SDS011;6744;53.190;6.576;2023-05-17T07:01:56;10.57;;;2.70;;
13349;SDS011;6744;53.190;6.576;2023-05-17T07:04:21;8.07;;;1.70;;
13349;SDS011;6744;53.190;6.576;2023-05-17T07:06:46;7.27;;;2.03;;
13349;SDS011;6744;53.190;6.576;2023-05-17T07:09:12;7.13;;;2.03;;
13349;SDS011;6744;53.190;6.576;2023-05-17T07:11:37;8.70;;;1.77;;
13349;SDS011;6744;53.190;6.576;2023-05-17T07:14:03;7.83;;;2.10;;
13349;SDS011;6744;53.190;6.576;2023-05-17T07:16:28;6.67;;;2.10;;
13349;SDS011;6744;53.190;6.576;2023-05-17T07:18:53;7.20;;;1.80;;
13349;SDS011;6744;53.190;6.576;2023-05-17T07:21:19;15.53;;;3.23;;
13349;SDS011;6744;53.190;6.576;2023-05-17T07:23:44;9.50;;;2.33;;
13349;SDS011;6744;53.190;6.576;2023-05-17T07:26:09;5.43;;;1.60;;
13349;SDS011;6744;53.190;6.576;2023-05-17T07:28:35;7.83;;;2.10;;
13349;SDS011;6744;53.190;6.576;2023-05-17T07:31:00;7.50;;;2.60;;
13349;SDS011;6744;53.190;6.576;2023-05-17T07:33:26;9.40;;;1.87;;
13349;SDS011;6744;53.190;6.576;2023-05-17T07:35:51;11.73;;;2.07;;
13349;SDS011;6744;53.190;6.576;2023-05-17T07:38:16;8.20;;;2.00;;
13349;SDS011;6744;53.190;6.576;2023-05-17T07:40:42;8.60;;;2.07;;
13349;SDS011;6744;53.190;6.576;2023-05-17T07:43:07;10.73;;;2.00;;
13349;SDS011;6744;53.190;6.576;2023-05-17T07:45:33;6.20;;;1.70;;
13349;SDS011;6744;53.190;6.576;2023-05-17T07:47:58;9.40;;;2.17;;
13349;SDS011;6744;53.190;6.576;2023-05-17T07:50:23;6.10;;;1.90;;
13349;SDS011;6744;53.190;6.576;2023-05-17T07:52:49;6.83;;;1.83;;
13349;SDS011;6744;53.190;6.576;2023-05-17T07:55:15;7.77;;;1.80;;
13349;SDS011;6744;53.190;6.576;2023-05-17T07:57:41;8.70;;;1.87;;
13349;SDS011;6744;53.190;6.576;2023-05-17T08:00:06;4.67;;;1.70;;
13349;SDS011;6744;53.190;6.576;2023-05-17T08:02:32;6.90;;;1.97;;
13349;SDS011;6744;53.190;6.576;2023-05-17T08:04:58;7.17;;;2.07;;
13349;SDS011;6744;53.190;6.576;2023-05-17T08:07:23;8.33;;;2.00;;
13349;SDS011;6744;53.190;6.576;2023-05-17T08:09:49;5.97;;;1.80;;
13349;SDS011;6744;53.190;6.576;2023-05-17T08:12:14;8.77;;;2.13;;
13349;SDS011;6744;53.190;6.576;2023-05-17T08:14:39;6.97;;;2.10;;
13349;SDS011;6744;53.190;6.576;2023-05-17T08:17:05;5.97;;;1.80;;
13349;SDS011;6744;53.190;6.576;2023-05-17T08:19:30;8.77;;;2.00;;
13349;SDS011;6744;53.190;6.576;2023-05-17T08:21:56;7.43;;;2.17;;
13349;SDS011;6744;53.190;6.576;2023-05-17T08:24:21;6.80;;;1.70;;
13349;SDS011;6744;53.190;6.576;2023-05-17T08:26:46;7.20;;;1.80;;
13349;SDS011;6744;53.190;6.576;2023-05-17T08:29:12;7.13;;;2.00;;
13349;SDS011;6744;53.190;6.576;2023-05-17T08:31:37;8.63;;;2.10;;
13349;SDS011;6744;53.190;6.576;2023-05-17T08:34:02;7.53;;;2.20;;
13349;SDS011;6744;53.190;6.576;2023-05-17T08:36:28;4.20;;;1.50;;
13349;SDS011;6744;53.190;6.576;2023-05-17T08:38:53;6.97;;;1.50;;
13349;SDS011;6744;53.190;6.576;2023-05-17T08:41:19;7.57;;;1.70;;
13349;SDS011;6744;53.190;6.576;2023-05-17T08:43:45;5.07;;;1.67;;
13349;SDS011;6744;53.190;6.576;2023-05-17T08:46:11;8.20;;;1.47;;
13349;SDS011;6744;53.190;6.576;2023-05-17T08:48:37;6.80;;;1.40;;
13349;SDS011;6744;53.190;6.576;2023-05-17T08:51:06;7.50;;;1.77;;
13349;SDS011;6744;53.190;6.576;2023-05-17T08:53:31;6.50;;;1.80;;
13349;SDS011;6744;53.190;6.576;2023-05-17T08:55:59;7.37;;;1.50;;
13349;SDS011;6744;53.190;6.576;2023-05-17T08:58:27;5.07;;;1.60;;
13349;SDS011;6744;53.190;6.576;2023-05-17T09:00:56;4.63;;;1.50;;
13349;SDS011;6744;53.190;6.576;2023-05-17T09:03:22;5.17;;;1.50;;
13349;SDS011;6744;53.190;6.576;2023-05-17T09:05:51;5.80;;;1.73;;
13349;SDS011;6744;53.190;6.576;2023-05-17T09:08:18;5.47;;;1.60;;
13349;SDS011;6744;53.190;6.576;2023-05-17T09:10:45;7.73;;;1.90;;
13349;SDS011;6744;53.190;6.576;2023-05-17T09:13:11;6.07;;;1.73;;
13349;SDS011;6744;53.190;6.576;2023-05-17T09:15:37;6.77;;;1.90;;
13349;SDS011;6744;53.190;6.576;2023-05-17T09:18:02;9.73;;;1.97;;
13349;SDS011;6744;53.190;6.576;2023-05-17T09:20:28;6.43;;;1.77;;
13349;SDS011;6744;53.190;6.576;2023-05-17T09:22:58;5.80;;;1.73;;
13349;SDS011;6744;53.190;6.576;2023-05-17T09:25:24;4.77;;;1.50;;
13349;SDS011;6744;53.190;6.576;2023-05-17T09:27:52;5.90;;;1.40;;
13349;SDS011;6744;53.190;6.576;2023-05-17T09:30:18;7.00;;;1.80;;
13349;SDS011;6744;53.190;6.576;2023-05-17T09:32:43;6.57;;;1.80;;
13349;SDS011;6744;53.190;6.576;2023-05-17T09:35:12;5.57;;;1.83;;
13349;SDS011;6744;53.190;6.576;2023-05-17T09:37:38;5.07;;;1.60;;
13349;SDS011;6744;53.190;6.576;2023-05-17T09:40:03;7.27;;;1.47;;
13349;SDS011;6744;53.190;6.576;2023-05-17T09:42:34;5.33;;;1.60;;
13349;SDS011;6744;53.190;6.576;2023-05-17T09:45:03;5.53;;;1.40;;
13349;SDS011;6744;53.190;6.576;2023-05-17T09:47:29;6.87;;;1.67;;
13349;SDS011;6744;53.190;6.576;2023-05-17T09:49:55;4.93;;;1.47;;
13349;SDS011;6744;53.190;6.576;2023-05-17T09:52:26;4.53;;;1.40;;
13349;SDS011;6744;53.190;6.576;2023-05-17T09:54:59;5.33;;;1.70;;
13349;SDS011;6744;53.190;6.576;2023-05-17T09:57:25;5.50;;;1.23;;
13349;SDS011;6744;53.190;6.576;2023-05-17T09:59:55;5.50;;;1.50;;
13349;SDS011;6744;53.190;6.576;2023-05-17T10:02:22;6.30;;;1.37;;
13349;SDS011;6744;53.190;6.576;2023-05-17T10:04:51;5.13;;;1.40;;
13349;SDS011;6744;53.190;6.576;2023-05-17T10:07:20;3.73;;;1.23;;
13349;SDS011;6744;53.190;6.576;2023-05-17T10:09:46;3.90;;;1.53;;
13349;SDS011;6744;53.190;6.576;2023-05-17T10:12:17;5.03;;;1.43;;
13349;SDS011;6744;53.190;6.576;2023-05-17T10:14:46;4.30;;;1.50;;
13349;SDS011;6744;53.190;6.576;2023-05-17T10:17:11;5.57;;;1.47;;
13349;SDS011;6744;53.190;6.576;2023-05-17T10:19:38;3.37;;;1.33;;
13349;SDS011;6744;53.190;6.576;2023-05-17T10:22:04;5.10;;;1.50;;
13349;SDS011;6744;53.190;6.576;2023-05-17T10:24:30;5.93;;;1.30;;
13349;SDS011;6744;53.190;6.576;2023-05-17T10:26:56;3.57;;;1.30;;
13349;SDS011;6744;53.190;6.576;2023-05-17T10:29:22;4.77;;;1.30;;
13349;SDS011;6744;53.190;6.576;2023-05-17T10:31:49;4.23;;;1.30;;
13349;SDS011;6744;53.190;6.576;2023-05-17T10:34:15;5.03;;;1.57;;
13349;SDS011;6744;53.190;6.576;2023-05-17T10:36:42;5.67;;;1.43;;
13349;SDS011;6744;53.190;6.576;2023-05-17T10:39:08;4.13;;;1.40;;
13349;SDS011;6744;53.190;6.576;2023-05-17T10:41:34;4.13;;;1.40;;
13349;SDS011;6744;53.190;6.576;2023-05-17T10:44:04;4.17;;;1.00;;
13349;SDS011;6744;53.190;6.576;2023-05-17T10:46:32;7.63;;;1.90;;
13349;SDS011;6744;53.190;6.576;2023-05-17T10:48:57;4.83;;;1.57;;
13349;SDS011;6744;53.190;6.576;2023-05-17T10:51:35;5.00;;;1.33;;
13349;SDS011;6744;53.190;6.576;2023-05-17T10:56:28;5.33;;;1.40;;
13349;SDS011;6744;53.190;6.576;2023-05-17T10:59:13;6.37;;;1.80;;
13349;SDS011;6744;53.190;6.576;2023-05-17T11:04:36;6.67;;;1.90;;
13349;SDS011;6744;53.190;6.576;2023-05-17T11:09:45;5.53;;;1.40;;
13349;SDS011;6744;53.190;6.576;2023-05-17T11:12:13;3.90;;;1.27;;
13349;SDS011;6744;53.190;6.576;2023-05-17T11:14:52;4.70;;;1.57;;
13349;SDS011;6744;53.190;6.576;2023-05-17T11:17:19;5.87;;;1.53;;
13349;SDS011;6744;53.190;6.576;2023-05-17T11:22:16;4.47;;;1.40;;
13349;SDS011;6744;53.190;6.576;2023-05-17T11:24:43;5.13;;;1.53;;
13349;SDS011;6744;53.190;6.576;2023-05-17T11:27:09;5.93;;;1.63;;
13349;SDS011;6744;53.190;6.576;2023-05-17T11:29:38;5.60;;;1.70;;
13349;SDS011;6744;53.190;6.576;2023-05-17T11:32:04;6.93;;;2.10;;
13349;SDS011;6744;53.190;6.576;2023-05-17T11:34:32;4.63;;;1.50;;
13349;SDS011;6744;53.190;6.576;2023-05-17T11:36:57;3.67;;;1.53;;
13349;SDS011;6744;53.190;6.576;2023-05-17T11:39:23;2.97;;;1.30;;
13349;SDS011;6744;53.190;6.576;2023-05-17T11:41:55;4.60;;;1.70;;
13349;SDS011;6744;53.190;6.576;2023-05-17T11:44:22;3.80;;;1.47;;
13349;SDS011;6744;53.190;6.576;2023-05-17T11:46:52;6.00;;;1.80;;
13349;SDS011;6744;53.190;6.576;2023-05-17T11:49:25;3.57;;;1.37;;
13349;SDS011;6744;53.190;6.576;2023-05-17T11:51:51;6.23;;;1.83;;
13349;SDS011;6744;53.190;6.576;2023-05-17T11:54:17;6.73;;;1.70;;
13349;SDS011;6744;53.190;6.576;2023-05-17T11:56:46;4.17;;;1.20;;
13349;SDS011;6744;53.190;6.576;2023-05-17T11:59:12;6.30;;;1.70;;
13349;SDS011;6744;53.190;6.576;2023-05-17T12:01:44;6.03;;;1.80;;
13349;SDS011;6744;53.190;6.576;2023-05-17T12:04:10;7.50;;;1.40;;
13349;SDS011;6744;53.190;6.576;2023-05-17T12:06:35;4.33;;;1.50;;
13349;SDS011;6744;53.190;6.576;2023-05-17T12:09:00;5.47;;;1.40;;
13349;SDS011;6744;53.190;6.576;2023-05-17T12:11:27;5.67;;;1.50;;
13349;SDS011;6744;53.190;6.576;2023-05-17T12:13:52;4.70;;;1.77;;
13349;SDS011;6744;53.190;6.576;2023-05-17T12:16:20;3.97;;;1.53;;
13349;SDS011;6744;53.190;6.576;2023-05-17T12:18:46;4.63;;;1.60;;
13349;SDS011;6744;53.190;6.576;2023-05-17T12:21:13;5.40;;;1.77;;
13349;SDS011;6744;53.190;6.576;2023-05-17T12:23:40;5.13;;;1.70;;
13349;SDS011;6744;53.190;6.576;2023-05-17T12:28:55;6.07;;;2.20;;
13349;SDS011;6744;53.190;6.576;2023-05-17T12:31:31;5.20;;;1.73;;
13349;SDS011;6744;53.190;6.576;2023-05-17T12:33:58;6.67;;;1.63;;
13349;SDS011;6744;53.190;6.576;2023-05-17T12:36:32;6.43;;;1.70;;
13349;SDS011;6744;53.190;6.576;2023-05-17T12:38:58;6.50;;;1.97;;
13349;SDS011;6744;53.190;6.576;2023-05-17T12:41:23;5.97;;;1.80;;
13349;SDS011;6744;53.190;6.576;2023-05-17T12:43:52;6.53;;;1.80;;
13349;SDS011;6744;53.190;6.576;2023-05-17T12:46:18;5.40;;;1.77;;
13349;SDS011;6744;53.190;6.576;2023-05-17T12:48:47;4.87;;;1.53;;
13349;SDS011;6744;53.190;6.576;2023-05-17T12:51:14;5.30;;;1.80;;
13349;SDS011;6744;53.190;6.576;2023-05-17T12:53:41;3.47;;;1.30;;
13349;SDS011;6744;53.190;6.576;2023-05-17T12:56:08;4.23;;;1.63;;
13349;SDS011;6744;53.190;6.576;2023-05-17T12:58:39;4.40;;;1.50;;
13349;SDS011;6744;53.190;6.576;2023-05-17T13:01:07;6.37;;;1.53;;
13349;SDS011;6744;53.190;6.576;2023-05-17T13:03:37;5.47;;;1.70;;
13349;SDS011;6744;53.190;6.576;2023-05-17T13:06:03;5.90;;;1.80;;
13349;SDS011;6744;53.190;6.576;2023-05-17T13:08:30;4.20;;;1.23;;
13349;SDS011;6744;53.190;6.576;2023-05-17T13:11:05;3.33;;;1.40;;
13349;SDS011;6744;53.190;6.576;2023-05-17T13:13:31;6.07;;;1.60;;
13349;SDS011;6744;53.190;6.576;2023-05-17T13:15:57;4.43;;;1.30;;
13349;SDS011;6744;53.190;6.576;2023-05-17T13:18:22;5.43;;;1.70;;
13349;SDS011;6744;53.190;6.576;2023-05-17T13:20:48;6.50;;;1.47;;
13349;SDS011;6744;53.190;6.576;2023-05-17T13:23:15;8.57;;;1.70;;
13349;SDS011;6744;53.190;6.576;2023-05-17T13:25:40;7.17;;;1.80;;
13349;SDS011;6744;53.190;6.576;2023-05-17T13:28:06;6.30;;;1.70;;
13349;SDS011;6744;53.190;6.576;2023-05-17T13:30:31;4.80;;;1.47;;
13349;SDS011;6744;53.190;6.576;2023-05-17T13:32:56;4.77;;;1.63;;
13349;SDS011;6744;53.190;6.576;2023-05-17T13:35:22;5.70;;;1.60;;
13349;SDS011;6744;53.190;6.576;2023-05-17T13:37:47;4.40;;;1.30;;
13349;SDS011;6744;53.190;6.576;2023-05-17T13:40:13;5.40;;;1.47;;
13349;SDS011;6744;53.190;6.576;2023-05-17T13:42:38;5.20;;;1.27;;
13349;SDS011;6744;53.190;6.576;2023-05-17T13:45:04;5.63;;;1.33;;
13349;SDS011;6744;53.190;6.576;2023-05-17T13:47:32;4.50;;;1.50;;
13349;SDS011;6744;53.190;6.576;2023-05-17T13:49:58;3.63;;;1.27;;
13349;SDS011;6744;53.190;6.576;2023-05-17T13:52:24;6.70;;;1.67;;
13349;SDS011;6744;53.190;6.576;2023-05-17T13:54:50;4.50;;;1.57;;
13349;SDS011;6744;53.190;6.576;2023-05-17T13:57:16;4.67;;;1.70;;
13349;SDS011;6744;53.190;6.576;2023-05-17T13:59:41;4.10;;;1.27;;
13349;SDS011;6744;53.190;6.576;2023-05-17T14:02:07;4.23;;;1.30;;
13349;SDS011;6744;53.190;6.576;2023-05-17T14:04:33;5.17;;;1.30;;
13349;SDS011;6744;53.190;6.576;2023-05-17T14:06:59;3.43;;;1.33;;
13349;SDS011;6744;53.190;6.576;2023-05-17T14:09:25;3.23;;;1.47;;
13349;SDS011;6744;53.190;6.576;2023-05-17T14:11:51;4.70;;;1.23;;
13349;SDS011;6744;53.190;6.576;2023-05-17T14:14:16;3.13;;;1.30;;
13349;SDS011;6744;53.190;6.576;2023-05-17T14:16:41;4.73;;;1.33;;
13349;SDS011;6744;53.190;6.576;2023-05-17T14:19:07;3.50;;;1.07;;
13349;SDS011;6744;53.190;6.576;2023-05-17T14:21:32;4.83;;;1.50;;
13349;SDS011;6744;53.190;6.576;2023-05-17T14:23:57;5.67;;;1.27;;
13349;SDS011;6744;53.190;6.576;2023-05-17T14:26:23;4.70;;;1.40;;
13349;SDS011;6744;53.190;6.576;2023-05-17T14:28:48;5.43;;;1.83;;
13349;SDS011;6744;53.190;6.576;2023-05-17T14:31:13;3.63;;;1.30;;
13349;SDS011;6744;53.190;6.576;2023-05-17T14:33:39;3.97;;;1.40;;
13349;SDS011;6744;53.190;6.576;2023-05-17T14:36:04;4.97;;;1.27;;
13349;SDS011;6744;53.190;6.576;2023-05-17T14:38:30;3.20;;;1.07;;
13349;SDS011;6744;53.190;6.576;2023-05-17T14:40:56;3.73;;;1.03;;
13349;SDS011;6744;53.190;6.576;2023-05-17T14:43:22;4.70;;;1.20;;
13349;SDS011;6744;53.190;6.576;2023-05-17T14:45:47;2.77;;;1.30;;
13349;SDS011;6744;53.190;6.576;2023-05-17T14:48:12;2.80;;;0.93;;
13349;SDS011;6744;53.190;6.576;2023-05-17T14:50:38;2.63;;;1.00;;
13349;SDS011;6744;53.190;6.576;2023-05-17T14:53:03;4.67;;;1.27;;
13349;SDS011;6744;53.190;6.576;2023-05-17T14:55:28;2.87;;;1.10;;
13349;SDS011;6744;53.190;6.576;2023-05-17T14:57:54;5.37;;;1.47;;
13349;SDS011;6744;53.190;6.576;2023-05-17T15:00:21;3.33;;;1.30;;
13349;SDS011;6744;53.190;6.576;2023-05-17T15:02:47;5.13;;;1.30;;
13349;SDS011;6744;53.190;6.576;2023-05-17T15:05:12;2.77;;;1.10;;
13349;SDS011;6744;53.190;6.576;2023-05-17T15:07:38;3.23;;;1.13;;
13349;SDS011;6744;53.190;6.576;2023-05-17T15:10:03;3.23;;;1.23;;
13349;SDS011;6744;53.190;6.576;2023-05-17T15:12:29;2.27;;;0.93;;
13349;SDS011;6744;53.190;6.576;2023-05-17T15:14:54;3.47;;;1.03;;
13349;SDS011;6744;53.190;6.576;2023-05-17T15:17:20;3.23;;;1.40;;
13349;SDS011;6744;53.190;6.576;2023-05-17T15:19:46;3.90;;;1.23;;